sensor_id;sensor_type;location;lat;lon;timestamp;P1;durP1;ratioP1;P2;durP2;ratioP2
65189;SDS011;51777;53.570;9.984;2023-02-28T00:00:17;5.47;;;1.88;;
65189;SDS011;51777;53.570;9.984;2023-02-28T00:02:43;4.53;;;2.00;;
65189;SDS011;51777;53.570;9.984;2023-02-28T00:05:10;7.75;;;2.30;;
65189;SDS011;51777;53.570;9.984;2023-02-28T00:07:37;6.45;;;1.73;;
65189;SDS011;51777;53.570;9.984;2023-02-28T00:10:04;4.50;;;1.80;;
65189;SDS011;51777;53.570;9.984;2023-02-28T00:12:32;5.63;;;1.63;;
65189;SDS011;51777;53.570;9.984;2023-02-28T00:14:58;5.75;;;1.88;;
65189;SDS011;51777;53.570;9.984;2023-02-28T00:17:24;5.00;;;1.90;;
65189;SDS011;51777;53.570;9.984;2023-02-28T00:19:50;7.07;;;2.10;;
65189;SDS011;51777;53.570;9.984;2023-02-28T00:22:16;4.13;;;1.75;;
65189;SDS011;51777;53.570;9.984;2023-02-28T00:24:43;6.68;;;2.15;;
65189;SDS011;51777;53.570;9.984;2023-02-28T00:27:09;4.93;;;2.10;;
65189;SDS011;51777;53.570;9.984;2023-02-28T00:29:35;6.38;;;2.22;;
65189;SDS011;51777;53.570;9.984;2023-02-28T00:32:00;4.93;;;1.83;;
65189;SDS011;51777;53.570;9.984;2023-02-28T00:34:26;10.60;;;1.88;;
65189;SDS011;51777;53.570;9.984;2023-02-28T00:36:51;6.40;;;2.17;;
65189;SDS011;51777;53.570;9.984;2023-02-28T00:39:17;5.35;;;2.20;;
65189;SDS011;51777;53.570;9.984;2023-02-28T00:41:42;3.40;;;2.08;;
65189;SDS011;51777;53.570;9.984;2023-02-28T00:44:08;5.00;;;2.20;;
65189;SDS011;51777;53.570;9.984;2023-02-28T00:46:34;8.00;;;2.72;;
65189;SDS011;51777;53.570;9.984;2023-02-28T00:48:59;6.32;;;2.70;;
65189;SDS011;51777;53.570;9.984;2023-02-28T00:51:24;4.97;;;2.50;;
65189;SDS011;51777;53.570;9.984;2023-02-28T00:53:50;10.25;;;2.97;;
65189;SDS011;51777;53.570;9.984;2023-02-28T00:56:15;6.63;;;2.55;;
65189;SDS011;51777;53.570;9.984;2023-02-28T00:58:41;7.88;;;2.63;;
65189;SDS011;51777;53.570;9.984;2023-02-28T01:01:06;7.43;;;2.83;;
65189;SDS011;51777;53.570;9.984;2023-02-28T01:03:32;5.68;;;2.50;;
65189;SDS011;51777;53.570;9.984;2023-02-28T01:05:57;5.90;;;2.70;;
65189;SDS011;51777;53.570;9.984;2023-02-28T01:08:23;6.38;;;3.13;;
65189;SDS011;51777;53.570;9.984;2023-02-28T01:10:48;5.60;;;2.78;;
65189;SDS011;51777;53.570;9.984;2023-02-28T01:13:14;5.22;;;2.42;;
65189;SDS011;51777;53.570;9.984;2023-02-28T01:15:41;4.05;;;2.60;;
65189;SDS011;51777;53.570;9.984;2023-02-28T01:18:10;8.82;;;2.88;;
65189;SDS011;51777;53.570;9.984;2023-02-28T01:20:36;6.07;;;2.80;;
65189;SDS011;51777;53.570;9.984;2023-02-28T01:23:02;8.50;;;3.10;;
65189;SDS011;51777;53.570;9.984;2023-02-28T01:25:27;7.43;;;2.90;;
65189;SDS011;51777;53.570;9.984;2023-02-28T01:27:53;14.30;;;3.55;;
65189;SDS011;51777;53.570;9.984;2023-02-28T01:30:18;6.85;;;3.03;;
65189;SDS011;51777;53.570;9.984;2023-02-28T01:32:44;7.35;;;3.22;;
65189;SDS011;51777;53.570;9.984;2023-02-28T01:35:09;10.43;;;4.10;;
65189;SDS011;51777;53.570;9.984;2023-02-28T01:37:35;11.93;;;5.38;;
65189;SDS011;51777;53.570;9.984;2023-02-28T01:40:00;19.00;;;8.23;;
65189;SDS011;51777;53.570;9.984;2023-02-28T01:42:26;18.45;;;7.30;;
65189;SDS011;51777;53.570;9.984;2023-02-28T01:44:59;13.15;;;6.07;;
65189;SDS011;51777;53.570;9.984;2023-02-28T01:47:27;21.23;;;6.13;;
65189;SDS011;51777;53.570;9.984;2023-02-28T01:49:58;15.00;;;5.70;;
65189;SDS011;51777;53.570;9.984;2023-02-28T01:52:25;18.42;;;5.90;;
65189;SDS011;51777;53.570;9.984;2023-02-28T01:54:54;9.77;;;4.57;;
65189;SDS011;51777;53.570;9.984;2023-02-28T01:57:29;13.15;;;4.75;;
65189;SDS011;51777;53.570;9.984;2023-02-28T02:00:04;11.23;;;5.10;;
65189;SDS011;51777;53.570;9.984;2023-02-28T02:02:33;15.65;;;7.05;;
65189;SDS011;51777;53.570;9.984;2023-02-28T02:05:02;17.23;;;6.60;;
65189;SDS011;51777;53.570;9.984;2023-02-28T02:07:35;16.55;;;7.38;;
65189;SDS011;51777;53.570;9.984;2023-02-28T02:15:54;21.38;;;7.80;;
65189;SDS011;51777;53.570;9.984;2023-02-28T02:38:33;30.05;;;9.25;;
65189;SDS011;51777;53.570;9.984;2023-02-28T02:41:17;35.72;;;11.88;;
65189;SDS011;51777;53.570;9.984;2023-02-28T02:46:23;19.25;;;6.50;;
65189;SDS011;51777;53.570;9.984;2023-02-28T02:48:50;22.95;;;8.40;;
65189;SDS011;51777;53.570;9.984;2023-02-28T02:51:20;93.40;;;30.10;;
65189;SDS011;51777;53.570;9.984;2023-02-28T02:53:52;94.93;;;30.00;;
65189;SDS011;51777;53.570;9.984;2023-02-28T02:58:50;63.58;;;21.65;;
65189;SDS011;51777;53.570;9.984;2023-02-28T03:01:22;42.38;;;14.07;;
65189;SDS011;51777;53.570;9.984;2023-02-28T03:04:00;23.33;;;7.85;;
65189;SDS011;51777;53.570;9.984;2023-02-28T03:06:27;25.17;;;9.13;;
65189;SDS011;51777;53.570;9.984;2023-02-28T03:08:53;16.08;;;6.22;;
65189;SDS011;51777;53.570;9.984;2023-02-28T03:11:19;17.67;;;5.60;;
65189;SDS011;51777;53.570;9.984;2023-02-28T03:28:42;10.88;;;4.80;;
65189;SDS011;51777;53.570;9.984;2023-02-28T03:31:18;10.63;;;4.60;;
65189;SDS011;51777;53.570;9.984;2023-02-28T03:33:51;7.00;;;4.43;;
65189;SDS011;51777;53.570;9.984;2023-02-28T03:36:30;12.00;;;4.57;;
65189;SDS011;51777;53.570;9.984;2023-02-28T03:39:08;15.43;;;4.68;;
65189;SDS011;51777;53.570;9.984;2023-02-28T03:41:41;12.32;;;5.20;;
65189;SDS011;51777;53.570;9.984;2023-02-28T03:44:16;11.18;;;4.60;;
65189;SDS011;51777;53.570;9.984;2023-02-28T03:52:32;15.13;;;5.30;;
65189;SDS011;51777;53.570;9.984;2023-02-28T03:55:02;20.80;;;7.72;;
65189;SDS011;51777;53.570;9.984;2023-02-28T03:57:39;18.55;;;7.25;;
65189;SDS011;51777;53.570;9.984;2023-02-28T04:00:12;22.63;;;8.10;;
65189;SDS011;51777;53.570;9.984;2023-02-28T04:02:43;26.75;;;8.52;;
65189;SDS011;51777;53.570;9.984;2023-02-28T04:05:09;25.85;;;9.48;;
65189;SDS011;51777;53.570;9.984;2023-02-28T04:07:35;28.02;;;9.63;;
65189;SDS011;51777;53.570;9.984;2023-02-28T04:10:00;23.40;;;9.27;;
65189;SDS011;51777;53.570;9.984;2023-02-28T04:12:26;24.23;;;9.25;;
65189;SDS011;51777;53.570;9.984;2023-02-28T04:14:51;22.98;;;9.73;;
65189;SDS011;51777;53.570;9.984;2023-02-28T04:17:17;22.67;;;9.05;;
65189;SDS011;51777;53.570;9.984;2023-02-28T04:19:42;24.38;;;8.75;;
65189;SDS011;51777;53.570;9.984;2023-02-28T04:22:08;22.98;;;8.35;;
65189;SDS011;51777;53.570;9.984;2023-02-28T04:24:35;16.92;;;7.32;;
65189;SDS011;51777;53.570;9.984;2023-02-28T04:27:01;16.80;;;6.60;;
65189;SDS011;51777;53.570;9.984;2023-02-28T04:29:27;19.48;;;6.40;;
65189;SDS011;51777;53.570;9.984;2023-02-28T04:31:54;12.73;;;5.72;;
65189;SDS011;51777;53.570;9.984;2023-02-28T04:34:22;14.80;;;6.10;;
65189;SDS011;51777;53.570;9.984;2023-02-28T04:36:48;13.13;;;5.72;;
65189;SDS011;51777;53.570;9.984;2023-02-28T04:39:15;16.80;;;5.60;;
65189;SDS011;51777;53.570;9.984;2023-02-28T04:41:43;12.98;;;5.68;;
65189;SDS011;51777;53.570;9.984;2023-02-28T04:44:09;13.25;;;6.45;;
65189;SDS011;51777;53.570;9.984;2023-02-28T04:46:34;12.90;;;5.90;;
65189;SDS011;51777;53.570;9.984;2023-02-28T04:49:00;17.17;;;6.60;;
65189;SDS011;51777;53.570;9.984;2023-02-28T04:51:25;15.88;;;6.40;;
65189;SDS011;51777;53.570;9.984;2023-02-28T04:53:51;12.93;;;6.45;;
65189;SDS011;51777;53.570;9.984;2023-02-28T04:56:17;14.65;;;6.18;;
65189;SDS011;51777;53.570;9.984;2023-02-28T04:58:43;16.58;;;7.03;;
65189;SDS011;51777;53.570;9.984;2023-02-28T05:01:25;12.13;;;5.90;;
65189;SDS011;51777;53.570;9.984;2023-02-28T05:03:53;13.23;;;5.90;;
65189;SDS011;51777;53.570;9.984;2023-02-28T05:06:19;11.63;;;5.63;;
65189;SDS011;51777;53.570;9.984;2023-02-28T05:08:46;11.52;;;5.90;;
65189;SDS011;51777;53.570;9.984;2023-02-28T05:11:17;12.30;;;5.72;;
65189;SDS011;51777;53.570;9.984;2023-02-28T05:13:45;16.30;;;5.55;;
65189;SDS011;51777;53.570;9.984;2023-02-28T05:16:11;11.70;;;5.78;;
65189;SDS011;51777;53.570;9.984;2023-02-28T05:18:37;15.30;;;5.72;;
65189;SDS011;51777;53.570;9.984;2023-02-28T05:21:03;12.77;;;5.88;;
65189;SDS011;51777;53.570;9.984;2023-02-28T05:23:28;14.95;;;5.78;;
65189;SDS011;51777;53.570;9.984;2023-02-28T05:25:55;15.38;;;5.75;;
65189;SDS011;51777;53.570;9.984;2023-02-28T05:28:22;11.77;;;5.30;;
65189;SDS011;51777;53.570;9.984;2023-02-28T05:30:47;13.02;;;5.70;;
65189;SDS011;51777;53.570;9.984;2023-02-28T05:33:13;13.85;;;5.88;;
65189;SDS011;51777;53.570;9.984;2023-02-28T05:35:39;14.60;;;6.13;;
65189;SDS011;51777;53.570;9.984;2023-02-28T05:38:05;14.45;;;5.40;;
65189;SDS011;51777;53.570;9.984;2023-02-28T05:40:31;13.20;;;5.60;;
65189;SDS011;51777;53.570;9.984;2023-02-28T05:42:56;14.18;;;5.88;;
65189;SDS011;51777;53.570;9.984;2023-02-28T05:45:21;13.98;;;6.07;;
65189;SDS011;51777;53.570;9.984;2023-02-28T05:47:47;18.25;;;6.15;;
65189;SDS011;51777;53.570;9.984;2023-02-28T05:50:12;15.63;;;5.68;;
65189;SDS011;51777;53.570;9.984;2023-02-28T05:52:38;12.95;;;6.03;;
65189;SDS011;51777;53.570;9.984;2023-02-28T05:55:03;18.13;;;5.95;;
65189;SDS011;51777;53.570;9.984;2023-02-28T05:57:29;18.13;;;6.25;;
65189;SDS011;51777;53.570;9.984;2023-02-28T05:59:55;16.15;;;6.78;;
65189;SDS011;51777;53.570;9.984;2023-02-28T06:02:20;16.70;;;6.65;;
65189;SDS011;51777;53.570;9.984;2023-02-28T06:04:45;11.02;;;6.30;;
65189;SDS011;51777;53.570;9.984;2023-02-28T06:07:11;18.70;;;6.25;;
65189;SDS011;51777;53.570;9.984;2023-02-28T06:09:37;19.42;;;6.95;;
65189;SDS011;51777;53.570;9.984;2023-02-28T06:12:03;17.13;;;6.95;;
65189;SDS011;51777;53.570;9.984;2023-02-28T06:14:31;17.00;;;6.75;;
65189;SDS011;51777;53.570;9.984;2023-02-28T06:16:57;12.02;;;6.45;;
65189;SDS011;51777;53.570;9.984;2023-02-28T06:19:24;15.00;;;6.65;;
65189;SDS011;51777;53.570;9.984;2023-02-28T06:21:51;13.43;;;6.45;;
65189;SDS011;51777;53.570;9.984;2023-02-28T06:24:18;17.08;;;6.85;;
65189;SDS011;51777;53.570;9.984;2023-02-28T06:26:44;21.45;;;7.10;;
65189;SDS011;51777;53.570;9.984;2023-02-28T06:29:09;23.98;;;6.93;;
65189;SDS011;51777;53.570;9.984;2023-02-28T06:31:35;21.50;;;6.82;;
65189;SDS011;51777;53.570;9.984;2023-02-28T06:34:00;18.15;;;7.00;;
65189;SDS011;51777;53.570;9.984;2023-02-28T06:36:27;13.70;;;6.75;;
65189;SDS011;51777;53.570;9.984;2023-02-28T06:38:52;29.70;;;7.43;;
65189;SDS011;51777;53.570;9.984;2023-02-28T06:41:24;26.88;;;7.70;;
65189;SDS011;51777;53.570;9.984;2023-02-28T06:43:51;25.23;;;7.13;;
65189;SDS011;51777;53.570;9.984;2023-02-28T06:46:17;20.00;;;7.22;;
65189;SDS011;51777;53.570;9.984;2023-02-28T06:48:43;18.60;;;7.32;;
65189;SDS011;51777;53.570;9.984;2023-02-28T06:51:11;20.92;;;7.72;;
65189;SDS011;51777;53.570;9.984;2023-02-28T06:53:39;16.17;;;7.25;;
65189;SDS011;51777;53.570;9.984;2023-02-28T06:56:05;20.85;;;7.50;;
65189;SDS011;51777;53.570;9.984;2023-02-28T06:58:33;16.30;;;7.20;;
65189;SDS011;51777;53.570;9.984;2023-02-28T07:00:59;25.10;;;7.57;;
65189;SDS011;51777;53.570;9.984;2023-02-28T07:03:24;28.88;;;7.20;;
65189;SDS011;51777;53.570;9.984;2023-02-28T07:05:50;28.35;;;7.45;;
65189;SDS011;51777;53.570;9.984;2023-02-28T07:08:15;28.90;;;7.25;;
65189;SDS011;51777;53.570;9.984;2023-02-28T07:10:41;20.13;;;7.63;;
65189;SDS011;51777;53.570;9.984;2023-02-28T07:13:07;22.45;;;8.10;;
65189;SDS011;51777;53.570;9.984;2023-02-28T07:15:33;19.15;;;7.45;;
65189;SDS011;51777;53.570;9.984;2023-02-28T07:18:00;27.92;;;9.05;;
65189;SDS011;51777;53.570;9.984;2023-02-28T07:20:26;19.55;;;8.30;;
65189;SDS011;51777;53.570;9.984;2023-02-28T07:22:51;23.88;;;8.15;;
65189;SDS011;51777;53.570;9.984;2023-02-28T07:25:26;26.52;;;9.02;;
65189;SDS011;51777;53.570;9.984;2023-02-28T07:27:53;28.40;;;9.55;;
65189;SDS011;51777;53.570;9.984;2023-02-28T07:30:19;30.52;;;9.48;;
65189;SDS011;51777;53.570;9.984;2023-02-28T07:32:45;25.52;;;9.07;;
65189;SDS011;51777;53.570;9.984;2023-02-28T07:35:10;22.95;;;8.68;;
65189;SDS011;51777;53.570;9.984;2023-02-28T07:37:36;23.42;;;8.90;;
65189;SDS011;51777;53.570;9.984;2023-02-28T07:40:06;32.65;;;9.10;;
65189;SDS011;51777;53.570;9.984;2023-02-28T07:42:33;23.35;;;7.75;;
65189;SDS011;51777;53.570;9.984;2023-02-28T07:45:00;20.45;;;7.47;;
65189;SDS011;51777;53.570;9.984;2023-02-28T07:47:25;16.13;;;7.07;;
65189;SDS011;51777;53.570;9.984;2023-02-28T07:49:51;14.77;;;6.78;;
65189;SDS011;51777;53.570;9.984;2023-02-28T07:52:16;13.95;;;6.15;;
65189;SDS011;51777;53.570;9.984;2023-02-28T07:54:42;15.23;;;7.03;;
65189;SDS011;51777;53.570;9.984;2023-02-28T07:57:07;12.05;;;6.45;;
65189;SDS011;51777;53.570;9.984;2023-02-28T07:59:33;20.13;;;6.70;;
65189;SDS011;51777;53.570;9.984;2023-02-28T08:01:58;17.13;;;6.72;;
65189;SDS011;51777;53.570;9.984;2023-02-28T08:04:24;16.67;;;6.22;;
65189;SDS011;51777;53.570;9.984;2023-02-28T08:06:50;18.05;;;6.03;;
65189;SDS011;51777;53.570;9.984;2023-02-28T08:09:18;15.38;;;5.70;;
65189;SDS011;51777;53.570;9.984;2023-02-28T08:11:43;17.30;;;5.20;;
65189;SDS011;51777;53.570;9.984;2023-02-28T08:14:09;12.35;;;6.00;;
65189;SDS011;51777;53.570;9.984;2023-02-28T08:16:34;12.45;;;5.18;;
65189;SDS011;51777;53.570;9.984;2023-02-28T08:19:00;12.32;;;5.28;;
65189;SDS011;51777;53.570;9.984;2023-02-28T08:21:25;18.00;;;5.22;;
65189;SDS011;51777;53.570;9.984;2023-02-28T08:23:50;12.02;;;5.90;;
65189;SDS011;51777;53.570;9.984;2023-02-28T08:26:16;11.20;;;5.35;;
65189;SDS011;51777;53.570;9.984;2023-02-28T08:28:43;14.57;;;5.40;;
65189;SDS011;51777;53.570;9.984;2023-02-28T08:31:10;14.07;;;6.88;;
65189;SDS011;51777;53.570;9.984;2023-02-28T08:33:36;12.02;;;5.47;;
65189;SDS011;51777;53.570;9.984;2023-02-28T08:36:02;14.68;;;4.90;;
65189;SDS011;51777;53.570;9.984;2023-02-28T08:38:28;11.05;;;4.80;;
65189;SDS011;51777;53.570;9.984;2023-02-28T08:40:57;24.27;;;5.05;;
65189;SDS011;51777;53.570;9.984;2023-02-28T08:43:26;12.95;;;4.90;;
65189;SDS011;51777;53.570;9.984;2023-02-28T08:45:52;11.40;;;4.55;;
65189;SDS011;51777;53.570;9.984;2023-02-28T08:48:18;10.13;;;4.75;;
65189;SDS011;51777;53.570;9.984;2023-02-28T08:50:54;8.90;;;4.07;;
65189;SDS011;51777;53.570;9.984;2023-02-28T08:53:22;17.33;;;4.10;;
65189;SDS011;51777;53.570;9.984;2023-02-28T08:55:47;8.85;;;3.35;;
65189;SDS011;51777;53.570;9.984;2023-02-28T08:58:22;8.40;;;3.00;;
65189;SDS011;51777;53.570;9.984;2023-02-28T09:00:48;8.10;;;3.00;;
65189;SDS011;51777;53.570;9.984;2023-02-28T09:03:13;8.73;;;2.78;;
65189;SDS011;51777;53.570;9.984;2023-02-28T09:05:39;9.60;;;2.70;;
65189;SDS011;51777;53.570;9.984;2023-02-28T09:08:04;5.55;;;2.25;;
65189;SDS011;51777;53.570;9.984;2023-02-28T09:10:30;6.20;;;1.67;;
65189;SDS011;51777;53.570;9.984;2023-02-28T09:12:55;3.83;;;1.75;;
65189;SDS011;51777;53.570;9.984;2023-02-28T09:15:21;6.72;;;1.30;;
65189;SDS011;51777;53.570;9.984;2023-02-28T09:17:46;3.17;;;1.30;;
65189;SDS011;51777;53.570;9.984;2023-02-28T09:20:12;2.88;;;1.50;;
65189;SDS011;51777;53.570;9.984;2023-02-28T09:22:37;2.25;;;1.45;;
65189;SDS011;51777;53.570;9.984;2023-02-28T09:25:03;4.80;;;1.58;;
65189;SDS011;51777;53.570;9.984;2023-02-28T09:27:30;6.25;;;1.70;;
65189;SDS011;51777;53.570;9.984;2023-02-28T09:29:55;4.65;;;1.40;;
65189;SDS011;51777;53.570;9.984;2023-02-28T09:32:21;3.65;;;1.65;;
65189;SDS011;51777;53.570;9.984;2023-02-28T09:34:46;7.47;;;1.80;;
65189;SDS011;51777;53.570;9.984;2023-02-28T09:37:12;4.97;;;1.40;;
65189;SDS011;51777;53.570;9.984;2023-02-28T09:39:37;5.78;;;1.30;;
65189;SDS011;51777;53.570;9.984;2023-02-28T09:42:11;3.30;;;1.70;;
65189;SDS011;51777;53.570;9.984;2023-02-28T09:44:46;3.92;;;1.23;;
65189;SDS011;51777;53.570;9.984;2023-02-28T09:50:14;2.15;;;1.10;;
65189;SDS011;51777;53.570;9.984;2023-02-28T09:52:51;3.47;;;1.80;;
65189;SDS011;51777;53.570;9.984;2023-02-28T09:57:50;1.48;;;1.08;;
65189;SDS011;51777;53.570;9.984;2023-02-28T10:08:31;2.17;;;1.20;;
65189;SDS011;51777;53.570;9.984;2023-02-28T10:11:06;5.75;;;1.20;;
65189;SDS011;51777;53.570;9.984;2023-02-28T10:13:35;1.75;;;1.27;;
65189;SDS011;51777;53.570;9.984;2023-02-28T10:16:10;3.53;;;1.33;;
65189;SDS011;51777;53.570;9.984;2023-02-28T10:18:57;5.10;;;1.80;;
65189;SDS011;51777;53.570;9.984;2023-02-28T10:21:34;1.20;;;0.98;;
65189;SDS011;51777;53.570;9.984;2023-02-28T10:24:49;2.40;;;1.45;;
65189;SDS011;51777;53.570;9.984;2023-02-28T10:27:01;8.27;;;1.60;;
65189;SDS011;51777;53.570;9.984;2023-02-28T10:29:37;2.10;;;1.27;;
65189;SDS011;51777;53.570;9.984;2023-02-28T10:32:08;4.00;;;1.40;;
65189;SDS011;51777;53.570;9.984;2023-02-28T10:34:35;3.50;;;1.35;;
65189;SDS011;51777;53.570;9.984;2023-02-28T10:37:01;2.03;;;1.10;;
65189;SDS011;51777;53.570;9.984;2023-02-28T10:42:03;5.47;;;2.30;;
65189;SDS011;51777;53.570;9.984;2023-02-28T10:44:30;6.55;;;2.50;;
65189;SDS011;51777;53.570;9.984;2023-02-28T10:46:58;3.60;;;1.20;;
65189;SDS011;51777;53.570;9.984;2023-02-28T10:49:27;3.75;;;1.27;;
65189;SDS011;51777;53.570;9.984;2023-02-28T10:51:55;2.28;;;1.48;;
65189;SDS011;51777;53.570;9.984;2023-02-28T10:54:24;1.88;;;1.20;;
65189;SDS011;51777;53.570;9.984;2023-02-28T10:59:44;5.32;;;1.70;;
65189;SDS011;51777;53.570;9.984;2023-02-28T11:02:28;7.15;;;1.40;;
65189;SDS011;51777;53.570;9.984;2023-02-28T11:04:54;5.88;;;1.50;;
65189;SDS011;51777;53.570;9.984;2023-02-28T11:07:21;3.25;;;1.20;;
65189;SDS011;51777;53.570;9.984;2023-02-28T11:09:48;4.95;;;1.40;;
65189;SDS011;51777;53.570;9.984;2023-02-28T11:12:19;5.65;;;1.50;;
65189;SDS011;51777;53.570;9.984;2023-02-28T11:15:35;5.20;;;2.05;;
65189;SDS011;51777;53.570;9.984;2023-02-28T11:17:44;3.47;;;1.70;;
65189;SDS011;51777;53.570;9.984;2023-02-28T11:20:23;7.80;;;2.15;;
65189;SDS011;51777;53.570;9.984;2023-02-28T11:22:51;3.35;;;1.52;;
65189;SDS011;51777;53.570;9.984;2023-02-28T11:25:22;5.22;;;1.50;;
65189;SDS011;51777;53.570;9.984;2023-02-28T11:27:52;5.22;;;1.65;;
65189;SDS011;51777;53.570;9.984;2023-02-28T11:30:39;9.10;;;1.70;;
65189;SDS011;51777;53.570;9.984;2023-02-28T11:33:19;2.55;;;1.35;;
65189;SDS011;51777;53.570;9.984;2023-02-28T11:35:45;12.60;;;1.65;;
65189;SDS011;51777;53.570;9.984;2023-02-28T11:38:14;4.57;;;1.50;;
65189;SDS011;51777;53.570;9.984;2023-02-28T11:41:18;5.80;;;1.92;;
65189;SDS011;51777;53.570;9.984;2023-02-28T11:43:57;7.68;;;1.63;;
65189;SDS011;51777;53.570;9.984;2023-02-28T11:46:50;2.58;;;1.50;;
65189;SDS011;51777;53.570;9.984;2023-02-28T11:49:28;4.20;;;1.70;;
65189;SDS011;51777;53.570;9.984;2023-02-28T11:58:00;8.88;;;1.65;;
65189;SDS011;51777;53.570;9.984;2023-02-28T12:03:21;10.88;;;2.90;;
65189;SDS011;51777;53.570;9.984;2023-02-28T12:11:30;7.80;;;1.80;;
65189;SDS011;51777;53.570;9.984;2023-02-28T12:19:26;2.97;;;1.60;;
65189;SDS011;51777;53.570;9.984;2023-02-28T12:22:30;6.13;;;2.08;;
65189;SDS011;51777;53.570;9.984;2023-02-28T12:27:43;3.42;;;1.77;;
65189;SDS011;51777;53.570;9.984;2023-02-28T12:30:16;3.50;;;1.73;;
65189;SDS011;51777;53.570;9.984;2023-02-28T12:32:47;5.13;;;1.75;;
65189;SDS011;51777;53.570;9.984;2023-02-28T12:35:19;6.22;;;2.55;;
65189;SDS011;51777;53.570;9.984;2023-02-28T12:37:51;7.10;;;2.38;;
65189;SDS011;51777;53.570;9.984;2023-02-28T12:40:23;6.88;;;1.98;;
65189;SDS011;51777;53.570;9.984;2023-02-28T12:42:53;9.27;;;2.08;;
65189;SDS011;51777;53.570;9.984;2023-02-28T12:48:08;6.78;;;1.83;;
65189;SDS011;51777;53.570;9.984;2023-02-28T12:50:38;15.15;;;2.33;;
65189;SDS011;51777;53.570;9.984;2023-02-28T12:53:21;8.93;;;2.13;;
65189;SDS011;51777;53.570;9.984;2023-02-28T12:56:07;4.43;;;2.25;;
65189;SDS011;51777;53.570;9.984;2023-02-28T12:58:58;6.28;;;2.13;;
65189;SDS011;51777;53.570;9.984;2023-02-28T13:07:25;12.90;;;3.15;;
65189;SDS011;51777;53.570;9.984;2023-02-28T13:10:13;5.72;;;2.35;;
65189;SDS011;51777;53.570;9.984;2023-02-28T13:12:51;6.57;;;2.20;;
65189;SDS011;51777;53.570;9.984;2023-02-28T13:15:20;6.95;;;2.55;;
65189;SDS011;51777;53.570;9.984;2023-02-28T13:17:56;4.80;;;2.40;;
65189;SDS011;51777;53.570;9.984;2023-02-28T13:20:33;8.32;;;2.33;;
65189;SDS011;51777;53.570;9.984;2023-02-28T13:23:04;6.22;;;2.10;;
65189;SDS011;51777;53.570;9.984;2023-02-28T13:26:05;3.70;;;2.05;;
65189;SDS011;51777;53.570;9.984;2023-02-28T13:29:20;5.20;;;2.20;;
65189;SDS011;51777;53.570;9.984;2023-02-28T13:34:39;5.35;;;2.88;;
65189;SDS011;51777;53.570;9.984;2023-02-28T13:39:51;11.18;;;3.30;;
65189;SDS011;51777;53.570;9.984;2023-02-28T13:47:39;4.35;;;2.10;;
65189;SDS011;51777;53.570;9.984;2023-02-28T13:50:21;8.48;;;2.20;;
65189;SDS011;51777;53.570;9.984;2023-02-28T13:52:49;5.10;;;2.08;;
65189;SDS011;51777;53.570;9.984;2023-02-28T13:55:31;4.85;;;2.80;;
65189;SDS011;51777;53.570;9.984;2023-02-28T13:58:16;7.72;;;3.40;;
65189;SDS011;51777;53.570;9.984;2023-02-28T14:09:23;19.05;;;2.45;;
65189;SDS011;51777;53.570;9.984;2023-02-28T14:11:54;7.53;;;2.40;;
65189;SDS011;51777;53.570;9.984;2023-02-28T14:17:08;5.28;;;2.30;;
65189;SDS011;51777;53.570;9.984;2023-02-28T14:19:39;6.30;;;2.20;;
65189;SDS011;51777;53.570;9.984;2023-02-28T14:25:17;6.75;;;2.50;;
65189;SDS011;51777;53.570;9.984;2023-02-28T14:27:47;11.07;;;2.13;;
65189;SDS011;51777;53.570;9.984;2023-02-28T14:31:01;10.50;;;2.40;;
65189;SDS011;51777;53.570;9.984;2023-02-28T14:33:48;7.50;;;2.80;;
65189;SDS011;51777;53.570;9.984;2023-02-28T14:36:32;7.47;;;2.45;;
65189;SDS011;51777;53.570;9.984;2023-02-28T14:39:04;8.70;;;2.65;;
65189;SDS011;51777;53.570;9.984;2023-02-28T14:41:40;8.40;;;2.42;;
65189;SDS011;51777;53.570;9.984;2023-02-28T14:44:20;20.63;;;3.50;;
65189;SDS011;51777;53.570;9.984;2023-02-28T14:46:49;6.28;;;2.45;;
65189;SDS011;51777;53.570;9.984;2023-02-28T14:49:18;7.38;;;2.75;;
65189;SDS011;51777;53.570;9.984;2023-02-28T14:52:01;8.45;;;2.53;;
65189;SDS011;51777;53.570;9.984;2023-02-28T14:54:30;14.68;;;2.97;;
65189;SDS011;51777;53.570;9.984;2023-02-28T14:56:56;7.47;;;2.90;;
65189;SDS011;51777;53.570;9.984;2023-02-28T14:59:26;6.15;;;2.53;;
65189;SDS011;51777;53.570;9.984;2023-02-28T15:02:15;12.20;;;2.90;;
65189;SDS011;51777;53.570;9.984;2023-02-28T15:05:03;13.20;;;3.15;;
65189;SDS011;51777;53.570;9.984;2023-02-28T15:07:38;8.95;;;2.40;;
65189;SDS011;51777;53.570;9.984;2023-02-28T15:12:36;6.55;;;2.78;;
65189;SDS011;51777;53.570;9.984;2023-02-28T15:15:02;13.85;;;3.28;;
65189;SDS011;51777;53.570;9.984;2023-02-28T15:17:28;8.85;;;2.55;;
65189;SDS011;51777;53.570;9.984;2023-02-28T15:19:54;6.18;;;2.60;;
65189;SDS011;51777;53.570;9.984;2023-02-28T15:22:27;10.25;;;2.60;;
65189;SDS011;51777;53.570;9.984;2023-02-28T15:25:00;11.52;;;2.83;;
65189;SDS011;51777;53.570;9.984;2023-02-28T15:27:31;9.80;;;2.72;;
65189;SDS011;51777;53.570;9.984;2023-02-28T15:30:08;11.57;;;2.55;;
65189;SDS011;51777;53.570;9.984;2023-02-28T15:35:19;5.85;;;2.05;;
65189;SDS011;51777;53.570;9.984;2023-02-28T15:40:31;5.25;;;1.83;;
65189;SDS011;51777;53.570;9.984;2023-02-28T15:43:18;4.88;;;2.22;;
65189;SDS011;51777;53.570;9.984;2023-02-28T15:46:04;7.15;;;2.40;;
65189;SDS011;51777;53.570;9.984;2023-02-28T15:48:33;4.32;;;2.05;;
65189;SDS011;51777;53.570;9.984;2023-02-28T15:53:36;8.65;;;2.47;;
65189;SDS011;51777;53.570;9.984;2023-02-28T15:56:26;16.15;;;8.13;;
65189;SDS011;51777;53.570;9.984;2023-02-28T15:58:55;71.03;;;28.17;;
65189;SDS011;51777;53.570;9.984;2023-02-28T16:01:26;27.52;;;12.20;;
65189;SDS011;51777;53.570;9.984;2023-02-28T16:03:55;11.23;;;4.22;;
65189;SDS011;51777;53.570;9.984;2023-02-28T16:06:32;12.27;;;2.83;;
65189;SDS011;51777;53.570;9.984;2023-02-28T16:09:00;5.50;;;2.33;;
65189;SDS011;51777;53.570;9.984;2023-02-28T16:11:27;4.82;;;2.10;;
65189;SDS011;51777;53.570;9.984;2023-02-28T16:13:53;5.72;;;2.20;;
65189;SDS011;51777;53.570;9.984;2023-02-28T16:16:20;3.60;;;2.13;;
65189;SDS011;51777;53.570;9.984;2023-02-28T16:18:49;8.00;;;2.60;;
65189;SDS011;51777;53.570;9.984;2023-02-28T16:21:15;14.98;;;5.65;;
65189;SDS011;51777;53.570;9.984;2023-02-28T16:23:41;9.73;;;2.28;;
65189;SDS011;51777;53.570;9.984;2023-02-28T16:26:06;4.65;;;2.13;;
65189;SDS011;51777;53.570;9.984;2023-02-28T16:28:34;8.63;;;2.03;;
65189;SDS011;51777;53.570;9.984;2023-02-28T16:31:03;10.10;;;2.33;;
65189;SDS011;51777;53.570;9.984;2023-02-28T16:33:31;4.78;;;2.40;;
65189;SDS011;51777;53.570;9.984;2023-02-28T16:35:57;4.30;;;2.55;;
65189;SDS011;51777;53.570;9.984;2023-02-28T16:38:23;6.68;;;3.65;;
65189;SDS011;51777;53.570;9.984;2023-02-28T16:40:50;6.72;;;2.88;;
65189;SDS011;51777;53.570;9.984;2023-02-28T16:43:19;12.93;;;3.88;;
65189;SDS011;51777;53.570;9.984;2023-02-28T16:45:48;7.75;;;3.22;;
65189;SDS011;51777;53.570;9.984;2023-02-28T16:48:20;4.10;;;2.47;;
65189;SDS011;51777;53.570;9.984;2023-02-28T16:50:45;7.72;;;2.28;;
65189;SDS011;51777;53.570;9.984;2023-02-28T16:53:11;7.28;;;2.70;;
65189;SDS011;51777;53.570;9.984;2023-02-28T16:55:36;5.43;;;2.47;;
65189;SDS011;51777;53.570;9.984;2023-02-28T16:58:02;9.50;;;3.85;;
65189;SDS011;51777;53.570;9.984;2023-02-28T17:00:29;5.75;;;3.22;;
65189;SDS011;51777;53.570;9.984;2023-02-28T17:02:56;37.92;;;17.02;;
65189;SDS011;51777;53.570;9.984;2023-02-28T17:05:24;10.95;;;5.22;;
65189;SDS011;51777;53.570;9.984;2023-02-28T17:07:51;5.32;;;3.15;;
65189;SDS011;51777;53.570;9.984;2023-02-28T17:10:18;9.85;;;2.80;;
65189;SDS011;51777;53.570;9.984;2023-02-28T17:12:49;9.35;;;2.78;;